Time;durP1;ratioP1;P1;durP2;ratioP2;P2;SDS_P1;SDS_P2;PMS_P1;PMS_P2;Temp;Humidity;BMP_temperature;BMP_pressure;BME280_temperature;BME280_humidity;BME280_pressure;Samples;Min_cycle;Max_cycle;Signal;HPM_P1;HPM_P2
2022/01/17 00:02:33;;;;;;;67.25;23.05;;;;;;;6.00;100.00;102076.00;8444313;28;20059;-64
2022/01/17 00:06:33;;;;;;;65.50;22.63;;;;;;;6.03;100.00;102083.06;8450222;28;20051;-64
2022/01/17 00:10:34;;;;;;;70.18;22.67;;;;;;;5.99;100.00;102087.69;8437942;28;20090;-64
2022/01/17 00:14:39;;;;;;;68.45;23.67;;;;;;;6.00;100.00;102095.66;8461763;28;20564;-64
2022/01/17 00:23:00;;;;;;;67.72;22.05;;;;;;;5.92;100.00;102070.16;8428357;27;20421;-65
2022/01/17 00:27:00;;;;;;;73.70;23.17;;;;;;;5.93;100.00;102082.63;8415906;27;20037;-65
2022/01/17 00:31:04;;;;;;;76.75;25.30;;;;;;;5.98;100.00;102075.22;8415879;27;20062;-65
2022/01/17 00:35:05;;;;;;;69.85;23.92;;;;;;;5.98;100.00;102096.69;8413122;27;20412;-64
2022/01/17 00:39:05;;;;;;;72.93;25.20;;;;;;;5.92;100.00;102102.34;8426760;28;20059;-65
2022/01/17 00:43:06;;;;;;;77.05;24.85;;;;;;;6.00;100.00;102100.16;8429393;28;20043;-65
2022/01/17 00:47:06;;;;;;;77.07;25.27;;;;;;;5.98;100.00;102112.81;8424997;28;20407;-65
2022/01/17 00:51:07;;;;;;;80.50;24.80;;;;;;;6.01;100.00;102109.97;8410043;28;20033;-65
2022/01/17 00:55:08;;;;;;;69.63;24.80;;;;;;;6.00;100.00;102124.31;8414468;28;20120;-65
2022/01/17 00:59:08;;;;;;;79.40;26.05;;;;;;;6.03;100.00;102132.22;8398608;27;20065;-65
2022/01/17 01:03:08;;;;;;;79.85;24.63;;;;;;;6.03;100.00;102133.09;8413448;27;20102;-64
2022/01/17 01:07:09;;;;;;;79.63;26.05;;;;;;;6.06;100.00;102125.88;8412493;27;20400;-64
2022/01/17 01:11:09;;;;;;;73.20;25.08;;;;;;;6.07;100.00;102121.28;8413127;27;20404;-64
2022/01/17 01:15:18;;;;;;;68.50;24.50;;;;;;;6.07;100.00;102134.69;8400381;27;20249;-64
2022/01/17 01:19:27;;;;;;;71.80;25.17;;;;;;;6.10;100.00;102130.97;8393510;28;20036;-65
2022/01/17 01:27:54;;;;;;;79.18;27.05;;;;;;;6.20;100.00;102135.00;8394409;28;20036;-65
2022/01/17 01:32:02;;;;;;;76.13;27.92;;;;;;;6.14;100.00;102135.28;8376151;28;20497;-65
2022/01/17 01:36:10;;;;;;;77.90;26.85;;;;;;;6.12;100.00;102130.91;8344391;28;20396;-64
2022/01/17 01:40:12;;;;;;;84.03;26.80;;;;;;;6.22;100.00;102143.84;8372140;28;20504;-65
2022/01/17 01:44:16;;;;;;;81.53;28.88;;;;;;;6.24;100.00;102147.31;8371652;28;20029;-64
2022/01/17 01:48:19;;;;;;;79.30;28.87;;;;;;;6.25;100.00;102141.00;8364777;28;20390;-64
2022/01/17 01:52:20;;;;;;;74.10;27.33;;;;;;;6.24;100.00;102131.22;8350350;28;20045;-64
2022/01/17 01:56:28;;;;;;;76.95;28.83;;;;;;;6.27;100.00;102112.25;8350267;28;20029;-64
2022/01/17 02:00:29;;;;;;;83.30;27.75;;;;;;;6.25;100.00;102116.81;8371719;28;20496;-64
2022/01/17 02:04:30;;;;;;;84.32;27.00;;;;;;;6.23;100.00;102118.75;8373818;28;20057;-64
2022/01/17 02:08:31;;;;;;;82.32;29.70;;;;;;;6.33;100.00;102136.13;8374656;28;20123;-64
2022/01/17 02:12:32;;;;;;;82.25;28.58;;;;;;;6.36;100.00;102136.00;8360527;28;20105;-64
2022/01/17 02:16:33;;;;;;;84.55;29.10;;;;;;;6.34;100.00;102140.56;8339294;28;20056;-64
2022/01/17 02:20:42;;;;;;;78.57;29.02;;;;;;;6.33;100.00;102154.94;8360121;28;20037;-64
2022/01/17 02:24:44;;;;;;;74.63;27.92;;;;;;;6.38;100.00;102155.59;8373216;28;20033;-64
2022/01/17 02:28:47;;;;;;;78.10;28.85;;;;;;;6.38;100.00;102139.47;8373279;28;20036;-64
2022/01/17 02:32:47;;;;;;;76.47;27.63;;;;;;;6.37;100.00;102126.97;8353992;28;20034;-64
2022/01/17 02:36:48;;;;;;;78.22;28.63;;;;;;;6.47;100.00;102136.34;8344118;28;20108;-64
2022/01/17 02:40:50;;;;;;;81.32;28.63;;;;;;;6.57;100.00;102132.25;8343564;28;20563;-64
2022/01/17 02:44:55;;;;;;;77.93;28.45;;;;;;;6.58;100.00;102136.69;8338039;28;20061;-64
2022/01/17 02:48:56;;;;;;;;;;;;;;;6.58;100.00;102131.31;8342135;28;20029;-64
2022/01/17 02:53:01;;;;;;;89.95;31.80;;;;;;;6.67;100.00;102130.84;8371660;28;19970;-64
2022/01/17 02:57:02;;;;;;;86.00;31.45;;;;;;;6.70;100.00;102125.31;8372644;28;20029;-64
2022/01/17 03:01:06;;;;;;;95.03;32.60;;;;;;;6.66;100.00;102129.13;8372115;28;20027;-64
2022/01/17 03:05:08;;;;;;;97.45;31.73;;;;;;;6.69;100.00;102122.72;8373709;28;20044;-64
2022/01/17 03:09:09;;;;;;;91.97;32.72;;;;;;;6.66;100.00;102134.50;8372747;28;20036;-64
2022/01/17 03:13:16;;;;;;;89.28;30.73;;;;;;;6.68;100.00;102137.94;8373738;28;20061;-64
2022/01/17 03:17:16;;;;;;;88.15;32.58;;;;;;;6.67;100.00;102120.09;8373094;28;20087;-64
2022/01/17 03:21:19;;;;;;;93.18;33.28;;;;;;;6.67;100.00;102114.72;8371828;28;20033;-64
2022/01/17 03:25:20;;;;;;;87.32;31.60;;;;;;;6.71;100.00;102126.19;8372152;28;20409;-64
2022/01/17 03:29:20;;;;;;;80.47;29.73;;;;;;;6.68;100.00;102137.09;8357167;28;20079;-64
2022/01/17 03:33:21;;;;;;;84.50;29.73;;;;;;;6.66;100.00;102115.69;8335710;28;20034;-64
2022/01/17 03:37:21;;;;;;;84.22;30.23;;;;;;;6.68;100.00;102108.38;8352226;28;20033;-64
2022/01/17 03:41:25;;;;;;;83.55;29.48;;;;;;;6.70;100.00;102106.50;8361111;28;20036;-64
2022/01/17 03:45:25;;;;;;;83.18;30.15;;;;;;;6.71;100.00;102127.03;8369502;28;20067;-64
2022/01/17 03:49:26;;;;;;;78.38;29.52;;;;;;;6.74;100.00;102129.59;8366199;28;20036;-64
2022/01/17 03:53:27;;;;;;;87.78;31.73;;;;;;;6.71;100.00;102121.69;8366143;28;20523;-64
2022/01/17 03:57:27;;;;;;;79.90;28.75;;;;;;;6.79;100.00;102124.84;8368469;28;20085;-64
2022/01/17 04:01:28;;;;;;;83.97;29.85;;;;;;;6.80;100.00;102129.28;8368334;28;20489;-64
2022/01/17 04:05:28;;;;;;;80.32;28.95;;;;;;;6.77;100.00;102124.06;8368696;28;20555;-64
2022/01/17 04:09:28;;;;;;;80.13;30.50;;;;;;;6.74;100.00;102134.97;8367246;28;20043;-64
2022/01/17 04:13:31;;;;;;;85.18;31.00;;;;;;;6.79;100.00;102141.00;8359696;28;20040;-64
2022/01/17 04:17:31;;;;;;;76.30;30.13;;;;;;;6.77;100.00;102148.25;8349256;28;20393;-64
2022/01/17 04:21:35;;;;;;;76.35;28.55;;;;;;;6.79;100.00;102145.47;8352106;28;20033;-64
2022/01/17 04:25:37;;;;;;;83.97;30.87;;;;;;;6.76;100.00;102159.06;8336950;28;20074;-64
2022/01/17 04:29:39;;;;;;;80.10;28.77;;;;;;;6.78;100.00;102160.75;8351082;28;20043;-64
2022/01/17 04:33:39;;;;;;;72.55;27.17;;;;;;;6.75;100.00;102174.34;8341641;28;20438;-64
2022/01/17 04:37:40;;;;;;;78.00;29.60;;;;;;;6.79;100.00;102167.88;8351228;28;20033;-64
2022/01/17 04:41:40;;;;;;;80.55;29.08;;;;;;;6.75;100.00;102166.28;8363569;28;20063;-64
2022/01/17 04:45:40;;;;;;;84.07;29.67;;;;;;;6.78;100.00;102167.94;8345573;28;20056;-64
2022/01/17 04:49:41;;;;;;;89.18;28.88;;;;;;;6.72;100.00;102169.13;8344262;28;20040;-64
2022/01/17 04:53:50;;;;;;;83.10;29.30;;;;;;;6.69;100.00;102154.97;8367379;28;20055;-64
2022/01/17 04:57:50;;;;;;;92.18;29.33;;;;;;;6.56;100.00;102169.94;8368205;28;20044;-64
2022/01/17 05:01:51;;;;;;;86.78;29.33;;;;;;;6.53;100.00;102170.09;8359216;28;20049;-64
2022/01/17 05:05:52;;;;;;;85.00;29.77;;;;;;;6.43;100.00;102175.03;8350302;28;20404;-64
2022/01/17 05:09:53;;;;;;;86.45;29.77;;;;;;;6.48;100.00;102167.63;8350730;28;20037;-64
2022/01/17 05:13:53;;;;;;;87.65;31.27;;;;;;;6.45;100.00;102174.97;8363285;28;20486;-64
2022/01/17 05:17:58;;;;;;;88.65;31.13;;;;;;;6.46;100.00;102169.50;8335452;28;20092;-64
2022/01/17 05:21:59;;;;;;;89.68;28.90;;;;;;;6.50;100.00;102164.88;8365766;28;20120;-64
2022/01/17 05:25:59;;;;;;;79.95;29.25;;;;;;;6.50;100.00;102168.44;8364019;28;20052;-64
2022/01/17 05:30:00;;;;;;;72.03;26.83;;;;;;;6.49;100.00;102169.38;8348192;28;20032;-64
2022/01/17 05:34:00;;;;;;;74.57;26.70;;;;;;;6.54;100.00;102178.09;8342685;28;20034;-64
2022/01/17 05:38:00;;;;;;;67.43;26.10;;;;;;;6.63;100.00;102193.75;8352857;28;20067;-64
2022/01/17 05:42:01;;;;;;;72.88;25.65;;;;;;;6.72;100.00;102201.38;8361671;28;20040;-65
2022/01/17 05:46:02;;;;;;;61.92;24.73;;;;;;;6.73;100.00;102203.09;8360148;28;20056;-64
2022/01/17 05:50:04;;;;;;;55.15;21.85;;;;;;;6.81;100.00;102192.88;8362012;28;20029;-64
2022/01/17 05:54:05;;;;;;;58.70;21.90;;;;;;;6.82;100.00;102191.91;8369900;28;20029;-64
2022/01/17 05:58:05;;;;;;;62.67;22.42;;;;;;;6.80;100.00;102191.09;8353911;28;20040;-64
2022/01/17 06:02:07;;;;;;;64.60;23.38;;;;;;;6.84;100.00;102195.41;8343562;28;20041;-64
2022/01/17 06:06:07;;;;;;;63.67;25.02;;;;;;;6.89;100.00;102204.09;8338408;28;20130;-64
2022/01/17 06:10:08;;;;;;;67.25;23.92;;;;;;;6.90;100.00;102213.91;8338568;28;20046;-64
2022/01/17 06:14:09;;;;;;;61.05;22.00;;;;;;;6.92;100.00;102205.78;8353650;28;20048;-64
2022/01/17 06:18:10;;;;;;;68.53;23.88;;;;;;;6.94;100.00;102196.69;8354895;28;20037;-64
2022/01/17 06:22:12;;;;;;;62.75;24.35;;;;;;;6.97;100.00;102199.22;8347661;28;20030;-64
2022/01/17 06:26:12;;;;;;;55.50;22.85;;;;;;;6.97;100.00;102176.81;8367815;28;20174;-64
2022/01/17 06:30:13;;;;;;;68.78;24.92;;;;;;;6.94;100.00;102195.78;8366651;28;20049;-65
2022/01/17 06:34:13;;;;;;;62.33;22.95;;;;;;;6.87;100.00;102192.56;8360855;28;20045;-65
2022/01/17 06:38:14;;;;;;;68.75;25.25;;;;;;;6.77;100.00;102210.06;8339877;28;20052;-65
2022/01/17 06:42:14;;;;;;;60.15;24.10;;;;;;;6.73;100.00;102204.91;8338746;28;20040;-64
2022/01/17 06:46:15;;;;;;;62.70;23.30;;;;;;;6.75;100.00;102209.28;8399890;28;20037;-65
2022/01/17 06:50:16;;;;;;;63.80;22.13;;;;;;;6.83;100.00;102223.22;8386296;28;20045;-65
2022/01/17 06:54:16;;;;;;;65.10;23.10;;;;;;;6.88;100.00;102207.72;8361890;28;20408;-65
2022/01/17 06:58:17;;;;;;;61.83;23.20;;;;;;;6.86;100.00;102212.31;8338153;28;20084;-64
2022/01/17 07:02:17;;;;;;;60.95;23.13;;;;;;;6.90;100.00;102230.06;8336469;28;20048;-64
2022/01/17 07:06:18;;;;;;;61.92;23.23;;;;;;;6.92;100.00;102246.94;8335626;28;20033;-64
2022/01/17 07:10:19;;;;;;;57.53;22.75;;;;;;;6.93;100.00;102256.78;8333632;28;20568;-65
2022/01/17 07:14:19;;;;;;;59.47;22.85;;;;;;;6.92;100.00;102273.00;8361252;28;20045;-64
2022/01/17 07:18:20;;;;;;;59.30;22.38;;;;;;;6.96;100.00;102264.69;8368600;28;20040;-64
2022/01/17 07:22:20;;;;;;;65.43;24.70;;;;;;;6.88;100.00;102242.69;8368704;28;20394;-64
2022/01/17 07:26:21;;;;;;;69.13;24.58;;;;;;;6.79;100.00;102229.69;8367843;28;20029;-65
2022/01/17 07:30:22;;;;;;;67.40;23.20;;;;;;;6.83;100.00;102211.59;8365714;28;20059;-64
2022/01/17 07:34:22;;;;;;;69.72;23.27;;;;;;;6.80;100.00;102204.53;8350664;28;20044;-65
2022/01/17 07:38:23;;;;;;;69.10;25.33;;;;;;;6.83;100.00;102201.69;8348220;28;20045;-65
2022/01/17 07:42:25;;;;;;;63.33;22.88;;;;;;;6.85;100.00;102215.94;8339936;28;20171;-65
2022/01/17 07:46:34;;;;;;;62.72;21.63;;;;;;;6.93;100.00;102213.75;8336600;28;20101;-65
2022/01/17 07:50:35;;;;;;;61.08;21.23;;;;;;;6.95;100.00;102206.47;8351981;28;20036;-65
2022/01/17 07:54:43;;;;;;;58.35;21.70;;;;;;;7.02;100.00;102197.13;8367781;28;20029;-65
2022/01/17 07:58:44;;;;;;;54.50;19.40;;;;;;;7.07;100.00;102188.84;8372819;28;20025;-65
2022/01/17 08:02:44;;;;;;;59.00;20.30;;;;;;;7.04;100.00;102199.75;8372571;28;20037;-65
2022/01/17 08:06:46;;;;;;;48.65;18.33;;;;;;;7.10;100.00;102194.94;8369082;28;20480;-65
2022/01/17 08:10:46;;;;;;;48.67;18.75;;;;;;;7.17;100.00;102195.53;8367928;28;20456;-65
2022/01/17 08:14:47;;;;;;;51.75;18.05;;;;;;;7.21;100.00;102197.97;8366963;28;20067;-65
2022/01/17 08:18:47;;;;;;;50.95;19.45;;;;;;;7.23;100.00;102198.75;8367319;28;20044;-65
2022/01/17 08:22:48;;;;;;;47.30;19.58;;;;;;;7.28;100.00;102218.22;8367444;28;20056;-65
2022/01/17 08:26:50;;;;;;;45.63;18.13;;;;;;;7.35;100.00;102238.47;8367532;28;20025;-65
2022/01/17 08:30:50;;;;;;;43.17;15.52;;;;;;;7.47;99.51;102254.00;8365847;28;20136;-65
2022/01/17 08:34:51;;;;;;;38.42;15.65;;;;;;;7.59;98.39;102247.97;8335195;28;20034;-65
2022/01/17 08:38:51;;;;;;;43.90;15.60;;;;;;;7.63;99.33;102251.41;8362333;28;20450;-65
2022/01/17 08:42:52;;;;;;;39.42;16.70;;;;;;;7.65;98.56;102258.44;8372970;28;20033;-65
2022/01/17 08:46:52;;;;;;;51.30;19.08;;;;;;;7.66;99.83;102270.09;8361751;28;20041;-65
2022/01/17 08:50:53;;;;;;;54.25;20.80;;;;;;;7.56;100.00;102274.19;8339269;28;20436;-65
2022/01/17 08:54:53;;;;;;;60.20;24.63;;;;;;;7.46;100.00;102276.50;8359557;28;20492;-65
2022/01/17 08:58:54;;;;;;;71.95;26.48;;;;;;;7.31;100.00;102279.94;8372172;28;20044;-65
2022/01/17 09:02:54;;;;;;;69.93;27.20;;;;;;;7.33;100.00;102280.75;8371814;28;20033;-65
2022/01/17 09:06:54;;;;;;;74.10;27.27;;;;;;;7.40;100.00;102289.38;8371957;28;20037;-65
2022/01/17 09:10:57;;;;;;;76.75;28.58;;;;;;;7.46;100.00;102284.56;8350164;28;20512;-65
2022/01/17 09:14:59;;;;;;;72.72;27.92;;;;;;;7.54;100.00;102293.09;8349116;28;20048;-65
2022/01/17 09:19:01;;;;;;;73.18;28.08;;;;;;;7.60;100.00;102308.94;8361772;28;20040;-65
2022/01/17 09:23:04;;;;;;;76.28;27.60;;;;;;;7.59;100.00;102322.47;8333524;28;20124;-65
2022/01/17 09:27:06;;;;;;;71.43;27.88;;;;;;;7.57;100.00;102313.63;8371868;28;20123;-65
2022/01/17 09:31:07;;;;;;;77.45;28.00;;;;;;;7.59;100.00;102307.19;8367339;28;20064;-65
2022/01/17 09:35:11;;;;;;;82.72;28.70;;;;;;;7.68;100.00;102303.16;8355503;28;20524;-65
2022/01/17 09:39:11;;;;;;;72.00;27.80;;;;;;;7.72;100.00;102305.63;8357807;28;20045;-65
2022/01/17 09:43:12;;;;;;;81.70;29.15;;;;;;;7.81;100.00;102313.22;8336272;28;20042;-65
2022/01/17 09:47:13;;;;;;;69.82;27.17;;;;;;;7.88;100.00;102319.16;8336510;28;20401;-65
2022/01/17 09:51:30;;;;;;;80.18;29.20;;;;;;;7.97;100.00;102324.94;8362439;28;20041;-65
2022/01/17 09:55:31;;;;;;;75.38;28.85;;;;;;;8.01;100.00;102325.66;8370858;28;20029;-65
2022/01/17 09:59:33;;;;;;;73.90;28.05;;;;;;;8.62;100.00;102328.66;8353581;28;20036;-65
2022/01/17 10:03:34;;;;;;;71.70;27.92;;;;;;;8.65;99.49;102328.50;8370953;28;20033;-65
2022/01/17 10:12:08;;;;;;;69.07;28.33;;;;;;;8.15;100.00;102339.28;8362871;27;20475;-64
2022/01/17 10:16:15;;;;;;;72.50;27.50;;;;;;;8.10;100.00;102333.25;8360215;28;20037;-64
2022/01/17 10:20:18;;;;;;;65.75;26.90;;;;;;;8.11;100.00;102331.44;8344641;28;20108;-64
2022/01/17 10:24:39;;;;;;;65.35;28.55;;;;;;;8.11;100.00;102336.84;8361558;28;20041;-64
2022/01/17 10:29:02;;;;;;;68.03;28.00;;;;;;;8.15;100.00;102349.19;8348591;28;20057;-64
2022/01/17 10:37:30;;;;;;;63.25;27.48;;;;;;;8.26;100.00;102358.47;8458239;28;20052;-64
2022/01/17 10:41:32;;;;;;;63.15;26.85;;;;;;;8.37;100.00;102344.41;8428061;28;20153;-64
2022/01/17 10:45:42;;;;;;;58.70;25.73;;;;;;;8.46;100.00;102335.84;8439657;28;20056;-64
2022/01/17 10:49:51;;;;;;;63.30;25.48;;;;;;;8.65;99.69;102317.72;8436991;28;20058;-64
2022/01/17 10:53:52;;;;;;;56.55;23.25;;;;;;;8.86;98.57;102333.59;8446983;28;20493;-64
2022/01/17 10:57:56;;;;;;;47.25;21.02;;;;;;;9.36;94.95;102344.19;8462850;28;20031;-64
2022/01/17 11:01:58;;;;;;;54.80;22.77;;;;;;;9.57;93.89;102353.75;8451898;27;20402;-64
2022/01/17 11:06:05;;;;;;;46.42;20.88;;;;;;;9.98;91.78;102360.28;8436971;28;20565;-64
2022/01/17 11:10:12;;;;;;;45.10;22.13;;;;;;;9.67;93.22;102365.78;8459144;28;20036;-64
2022/01/17 11:14:14;;;;;;;54.25;22.23;;;;;;;9.28;94.62;102373.47;8456572;28;20035;-64
2022/01/17 11:18:20;;;;;;;53.28;22.80;;;;;;;8.99;96.97;102360.72;8453471;28;20399;-65
2022/01/17 11:22:20;;;;;;;63.47;24.80;;;;;;;8.79;98.64;102371.75;8440090;28;20052;-64
2022/01/17 11:26:21;;;;;;;51.35;24.15;;;;;;;8.68;99.89;102360.69;8426027;28;20032;-64
2022/01/17 11:30:22;;;;;;;59.08;25.67;;;;;;;8.77;100.00;102334.09;8434913;28;20036;-65
2022/01/17 11:34:22;;;;;;;63.72;25.52;;;;;;;8.80;100.00;102325.84;8430327;28;20085;-64
2022/01/17 11:38:28;;;;;;;64.28;26.65;;;;;;;8.63;100.00;102323.19;8410941;28;20036;-64
2022/01/17 11:46:48;;;;;;;62.40;26.25;;;;;;;8.49;100.00;102341.06;8427573;27;20514;-64
2022/01/17 11:50:52;;;;;;;60.78;26.42;;;;;;;8.35;100.00;102351.75;8432260;28;20048;-64
2022/01/17 11:54:54;;;;;;;63.77;26.03;;;;;;;8.33;100.00;102364.41;8459116;28;20044;-64
2022/01/17 11:58:54;;;;;;;54.28;24.55;;;;;;;8.32;100.00;102362.69;8446780;28;20028;-65
2022/01/17 12:03:16;;;;;;;62.10;26.13;;;;;;;8.39;100.00;102358.69;8450583;28;20051;-64
2022/01/17 12:07:19;;;;;;;61.90;26.65;;;;;;;8.34;100.00;102363.44;8462294;28;20058;-64
2022/01/17 12:11:27;;;;;;;63.60;26.90;;;;;;;8.34;100.00;102339.19;8438879;28;20063;-64
2022/01/17 12:15:35;;;;;;;74.28;28.73;;;;;;;8.32;100.00;102315.03;8481088;27;20047;-64
2022/01/17 12:19:35;;;;;;;62.40;26.30;;;;;;;8.28;100.00;102323.34;8484642;27;20377;-64
2022/01/17 12:23:36;;;;;;;67.07;27.17;;;;;;;8.30;100.00;102361.88;8461057;28;20036;-64
2022/01/17 12:27:36;;;;;;;66.10;26.55;;;;;;;8.24;100.00;102365.78;8472848;27;20031;-65
2022/01/17 12:31:44;;;;;;;68.15;28.58;;;;;;;8.19;100.00;102351.63;8489300;27;20036;-65
2022/01/17 12:35:46;;;;;;;74.25;29.95;;;;;;;8.18;100.00;102359.78;8488480;27;20079;-64
2022/01/17 12:39:47;;;;;;;66.20;28.60;;;;;;;8.11;100.00;102382.63;8506404;27;20039;-64
2022/01/17 12:43:47;;;;;;;75.55;30.88;;;;;;;8.15;100.00;102365.34;8511057;27;20043;-64
2022/01/17 12:47:49;;;;;;;72.53;30.70;;;;;;;8.17;100.00;102341.91;8511815;27;20035;-64
2022/01/17 12:51:55;;;;;;;69.57;29.95;;;;;;;8.20;100.00;102360.59;8508770;27;20086;-66
2022/01/17 12:55:58;;;;;;;69.75;28.88;;;;;;;8.25;100.00;102328.91;8495724;27;20486;-65
2022/01/17 13:00:04;;;;;;;71.40;29.70;;;;;;;8.26;100.00;102352.22;8477979;27;20522;-65
2022/01/17 13:04:08;;;;;;;70.25;28.40;;;;;;;8.23;100.00;102350.53;8484182;27;20085;-65
2022/01/17 13:08:09;;;;;;;75.75;30.92;;;;;;;8.18;100.00;102354.41;8501164;27;20136;-65
2022/01/17 13:12:09;;;;;;;68.22;29.80;;;;;;;8.17;100.00;102375.06;8477841;27;20032;-65
2022/01/17 13:16:11;;;;;;;74.82;29.33;;;;;;;8.12;100.00;102381.66;8481829;27;20118;-65
2022/01/17 13:20:11;;;;;;;73.43;30.98;;;;;;;8.11;100.00;102369.16;8486258;27;20495;-65
2022/01/17 13:24:17;;;;;;;74.28;29.92;;;;;;;8.11;100.00;102363.78;8484011;27;20427;-65
2022/01/17 13:28:18;;;;;;;74.55;30.75;;;;;;;8.04;100.00;102347.94;8494641;27;20457;-65
2022/01/17 13:32:18;;;;;;;86.15;32.38;;;;;;;8.04;100.00;102372.16;8480256;27;20044;-65
2022/01/17 13:36:21;;;;;;;76.97;33.00;;;;;;;8.00;100.00;102377.78;8495645;27;20402;-65
2022/01/17 13:40:23;;;;;;;72.00;31.38;;;;;;;8.02;100.00;102408.19;8466931;27;20499;-65
2022/01/17 13:44:30;;;;;;;83.47;31.20;;;;;;;7.99;100.00;102387.69;8448289;27;20047;-65
2022/01/17 13:48:31;;;;;;;78.60;33.83;;;;;;;7.95;100.00;102385.22;8443468;27;20422;-65
2022/01/17 13:52:31;;;;;;;82.78;33.17;;;;;;;7.93;100.00;102385.31;8471225;27;20051;-65
2022/01/17 13:56:34;;;;;;;79.32;33.88;;;;;;;7.87;100.00;102377.53;8464241;27;20123;-65
2022/01/17 14:00:53;;;;;;;84.82;33.15;;;;;;;7.94;100.00;102399.66;8468362;27;20150;-64
2022/01/17 14:04:55;;;;;;;93.30;35.70;;;;;;;7.91;100.00;102373.75;8492894;27;20043;-64
2022/01/17 14:08:59;;;;;;;95.57;35.08;;;;;;;7.94;100.00;102367.31;8471636;27;20039;-64
2022/01/17 14:13:02;;;;;;;79.88;33.95;;;;;;;7.95;100.00;102353.78;8464164;27;20117;-64
2022/01/17 14:17:02;;;;;;;81.07;33.55;;;;;;;7.95;100.00;102372.63;8451709;27;20062;-64
2022/01/17 14:21:03;;;;;;;84.18;33.85;;;;;;;7.95;100.00;102378.03;8472103;27;20212;-64
2022/01/17 14:25:17;;;;;;;82.30;33.38;;;;;;;7.96;100.00;102376.19;8497939;27;20054;-64
2022/01/17 14:29:19;;;;;;;;;;;;;;;7.98;100.00;102380.56;8455085;28;20031;-64
2022/01/17 14:33:22;;;;;;;83.22;34.03;;;;;;;8.00;100.00;102385.88;8473633;27;20036;-64
2022/01/17 14:37:32;;;;;;;77.78;33.17;;;;;;;8.02;100.00;102374.06;8476851;27;20053;-64
2022/01/17 14:41:36;;;;;;;83.47;33.17;;;;;;;8.05;100.00;102387.38;8465148;27;20557;-64
2022/01/17 14:45:38;;;;;;;72.37;32.20;;;;;;;8.05;100.00;102387.38;8484886;27;20481;-64
2022/01/17 14:49:42;;;;;;;78.30;30.52;;;;;;;8.03;100.00;102386.56;8487342;27;20104;-64
2022/01/17 14:53:43;;;;;;;72.82;31.65;;;;;;;8.06;100.00;102399.88;8488270;27;20407;-64
2022/01/17 15:02:48;;;;;;;77.78;28.50;;;;;;;8.10;100.00;102416.75;8472415;27;20505;-64
2022/01/17 15:06:25;;;;;;;69.63;28.95;;;;;;;8.18;100.00;102419.06;8445069;27;20149;-64
2022/01/17 15:10:29;;;;;;;66.47;27.60;;;;;;;8.21;100.00;102425.19;8479973;27;20051;-64
2022/01/17 15:14:29;;;;;;;59.00;27.33;;;;;;;8.24;100.00;102418.78;8481548;27;20050;-64
2022/01/17 15:18:30;;;;;;;53.95;25.45;;;;;;;8.19;100.00;102431.56;8456701;27;20032;-64
2022/01/17 15:22:30;;;;;;;74.18;28.92;;;;;;;8.25;100.00;102453.72;8473728;27;20461;-64
2022/01/17 15:26:30;;;;;;;64.18;26.38;;;;;;;8.27;100.00;102456.34;8493207;27;20035;-64
2022/01/17 15:30:33;;;;;;;60.03;26.67;;;;;;;8.27;100.00;102445.56;8456227;27;20061;-64
2022/01/17 15:34:35;;;;;;;61.15;24.95;;;;;;;8.29;100.00;102460.69;8434482;27;20111;-64
2022/01/17 15:38:35;;;;;;;55.55;24.83;;;;;;;8.36;100.00;102480.13;8495203;27;20095;-64
2022/01/17 15:42:36;;;;;;;68.00;26.33;;;;;;;8.32;100.00;102471.31;8482234;27;20035;-64
2022/01/17 15:46:40;;;;;;;62.30;25.10;;;;;;;8.30;100.00;102470.56;8494722;27;20039;-64
2022/01/17 15:50:41;;;;;;;86.60;30.80;;;;;;;8.25;100.00;102474.41;8477410;27;20080;-64
2022/01/17 15:54:43;;;;;;;73.07;28.80;;;;;;;8.22;100.00;102458.38;8482194;27;20031;-64
2022/01/17 15:58:43;;;;;;;70.63;26.55;;;;;;;8.21;100.00;102446.72;8456301;27;20035;-64
2022/01/17 16:02:44;;;;;;;71.20;26.10;;;;;;;8.14;100.00;102444.44;8497216;27;20046;-64
2022/01/17 16:06:45;;;;;;;60.58;23.83;;;;;;;8.10;100.00;102451.78;8482276;27;20410;-64
2022/01/17 16:10:48;;;;;;;60.60;24.92;;;;;;;8.09;100.00;102468.91;8463466;27;20035;-64
2022/01/17 16:14:49;;;;;;;64.65;26.15;;;;;;;8.14;100.00;102472.22;8445439;27;20055;-64
2022/01/17 16:18:51;;;;;;;63.40;24.60;;;;;;;8.24;100.00;102481.66;8466228;27;20073;-64
2022/01/17 16:22:51;;;;;;;65.65;24.58;;;;;;;8.32;100.00;102492.03;8459288;27;20047;-64
2022/01/17 16:26:51;;;;;;;65.07;23.93;;;;;;;8.34;100.00;102490.09;8484981;27;20060;-64
2022/01/17 16:30:52;;;;;;;57.25;21.02;;;;;;;8.35;100.00;102503.50;8459197;27;20745;-64
2022/01/17 16:34:56;;;;;;;59.83;23.23;;;;;;;8.38;100.00;102518.66;8468187;27;20039;-64
2022/01/17 16:38:58;;;;;;;53.80;23.23;;;;;;;8.33;100.00;102499.16;8475662;27;20058;-63
2022/01/17 16:42:58;;;;;;;61.20;24.67;;;;;;;8.28;100.00;102511.97;8482066;27;20031;-64
2022/01/17 16:46:59;;;;;;;58.38;24.17;;;;;;;8.29;100.00;102505.66;8470593;27;20464;-64
2022/01/17 16:50:59;;;;;;;66.45;24.30;;;;;;;8.30;100.00;102493.91;8484663;27;20065;-63
2022/01/17 16:54:59;;;;;;;59.25;23.88;;;;;;;8.32;100.00;102489.34;8452566;27;20051;-64
2022/01/17 16:59:00;;;;;;;58.78;24.55;;;;;;;8.33;100.00;102515.31;8463277;27;20031;-64
2022/01/17 17:03:01;;;;;;;71.43;26.92;;;;;;;8.31;100.00;102507.31;8498841;27;20107;-64
2022/01/17 17:07:03;;;;;;;66.13;25.52;;;;;;;8.34;100.00;102479.31;8458480;27;20054;-63
2022/01/17 17:11:03;;;;;;;70.55;26.98;;;;;;;8.33;100.00;102526.09;8490023;27;20043;-64
2022/01/17 17:15:06;;;;;;;79.03;28.30;;;;;;;8.35;100.00;102548.47;8454848;27;20039;-64
2022/01/17 17:19:07;;;;;;;67.63;25.98;;;;;;;8.32;100.00;102508.19;8444572;27;20043;-64
2022/01/17 17:23:07;;;;;;;63.97;25.13;;;;;;;8.36;100.00;102499.00;8470441;27;20033;-63
2022/01/17 17:27:08;;;;;;;67.30;24.00;;;;;;;8.36;100.00;102536.72;8473217;27;20503;-64
2022/01/17 17:31:09;;;;;;;63.83;23.73;;;;;;;8.43;100.00;102540.84;8484274;27;20024;-64
2022/01/17 17:35:10;;;;;;;65.30;24.40;;;;;;;8.47;100.00;102523.56;8475086;27;20112;-64
2022/01/17 17:39:12;;;;;;;64.50;24.65;;;;;;;8.48;100.00;102514.56;8470951;27;20039;-64
2022/01/17 17:43:12;;;;;;;73.30;24.75;;;;;;;8.48;100.00;102526.19;8488254;27;20039;-64
2022/01/17 17:47:13;;;;;;;58.78;23.20;;;;;;;8.48;100.00;102536.13;8497364;27;20039;-64
2022/01/17 17:51:14;;;;;;;68.68;23.35;;;;;;;8.51;100.00;102544.03;8470712;27;20043;-64
2022/01/17 17:55:15;;;;;;;58.35;21.77;;;;;;;8.51;100.00;102552.13;8481783;27;20538;-64
2022/01/17 17:59:18;;;;;;;66.35;21.38;;;;;;;8.51;100.00;102558.38;8468465;27;20479;-64
2022/01/17 18:03:18;;;;;;;61.78;21.13;;;;;;;8.52;100.00;102541.28;8457106;27;20039;-64
2022/01/17 18:07:19;;;;;;;49.20;20.25;;;;;;;8.63;100.00;102551.50;8468907;27;20050;-64
2022/01/17 18:11:19;;;;;;;62.83;21.42;;;;;;;8.63;100.00;102556.91;8458192;27;20075;-64
2022/01/17 18:15:19;;;;;;;57.28;22.20;;;;;;;8.59;100.00;102566.97;8481171;27;20039;-64
2022/01/17 18:19:22;;;;;;;61.50;22.60;;;;;;;8.56;100.00;102550.06;8486520;27;20450;-64
2022/01/17 18:23:22;;;;;;;63.70;23.75;;;;;;;8.55;100.00;102548.31;8460734;27;20428;-64
2022/01/17 18:27:23;;;;;;;60.72;25.33;;;;;;;8.51;100.00;102552.13;8481753;27;20063;-64
2022/01/17 18:31:23;;;;;;;50.10;24.55;;;;;;;8.55;100.00;102591.47;8459328;27;20039;-64
2022/01/17 18:35:25;;;;;;;64.15;25.88;;;;;;;8.55;100.00;102578.84;8474262;27;20495;-64
2022/01/17 18:39:26;;;;;;;63.63;25.02;;;;;;;8.59;100.00;102555.28;8469893;27;20040;-64
2022/01/17 18:43:27;;;;;;;57.78;23.80;;;;;;;8.61;100.00;102550.69;8477555;27;20619;-64
2022/01/17 18:47:28;;;;;;;58.03;23.30;;;;;;;8.64;100.00;102564.03;8484047;27;20431;-64